createdAt,value
2022-12-08T00:01:28.768Z,16.60
2022-12-08T00:03:55.742Z,16.43
2022-12-08T00:06:39.980Z,20.80
2022-12-08T00:09:06.687Z,19.27
2022-12-08T00:11:33.631Z,21.13
2022-12-08T00:14:00.235Z,26.17
2022-12-08T00:16:27.166Z,16.90
2022-12-08T00:18:53.676Z,23.80
2022-12-08T00:21:20.306Z,23.73
2022-12-08T00:23:46.873Z,19.47
2022-12-08T00:26:13.314Z,25.43
2022-12-08T00:28:40.113Z,22.37
2022-12-08T00:31:11.891Z,20.37
2022-12-08T00:33:38.563Z,19.33
2022-12-08T00:36:09.917Z,16.37
2022-12-08T00:38:37.499Z,19.83
2022-12-08T00:41:07.220Z,19.73
2022-12-08T00:43:33.862Z,17.83
2022-12-08T00:46:00.506Z,18.27
2022-12-08T00:48:27.083Z,21.10
2022-12-08T00:50:53.622Z,22.67
2022-12-08T00:53:20.252Z,19.07
2022-12-08T00:55:46.724Z,22.87
2022-12-08T00:58:13.037Z,19.30
2022-12-08T01:00:43.061Z,19.83
2022-12-08T01:03:10.863Z,21.08
2022-12-08T01:05:37.299Z,16.77
2022-12-08T01:08:08.698Z,15.50
2022-12-08T01:10:36.089Z,19.30
2022-12-08T01:13:02.647Z,14.50
2022-12-08T01:15:29.054Z,16.40
2022-12-08T01:17:55.512Z,16.57
2022-12-08T01:20:21.947Z,17.20
2022-12-08T01:22:48.572Z,18.57
2022-12-08T01:25:14.966Z,17.50
2022-12-08T01:27:41.507Z,15.80
2022-12-08T01:30:08.729Z,16.43
2022-12-08T01:32:35.030Z,15.63
2022-12-08T01:35:01.439Z,17.77
2022-12-08T01:37:27.878Z,15.83
2022-12-08T01:39:54.202Z,15.83
2022-12-08T01:42:22.431Z,16.63
2022-12-08T01:45:01.392Z,17.83
2022-12-08T01:47:34.385Z,16.53
2022-12-08T01:50:01.838Z,16.27
2022-12-08T01:53:00.151Z,17.33
2022-12-08T01:55:33.359Z,19.70
2022-12-08T01:58:07.065Z,17.83
2022-12-08T02:00:33.699Z,21.63
2022-12-08T02:03:07.018Z,17.37
2022-12-08T02:05:36.501Z,17.10
2022-12-08T02:08:07.762Z,24.60
2022-12-08T02:10:36.845Z,24.30
2022-12-08T02:13:04.512Z,23.03
2022-12-08T02:15:51.903Z,18.47
2022-12-08T02:18:33.928Z,19.13
2022-12-08T02:21:43.653Z,21.43
2022-12-08T02:24:21.936Z,17.27
2022-12-08T02:27:32.632Z,19.30
2022-12-08T02:30:10.986Z,21.42
2022-12-08T02:33:14.621Z,20.23
2022-12-08T02:36:05.814Z,22.80
2022-12-08T02:39:01.429Z,23.80
2022-12-08T02:42:09.932Z,24.10
2022-12-08T02:44:42.547Z,18.67
2022-12-08T02:47:14.326Z,18.63
2022-12-08T02:49:40.803Z,18.83
2022-12-08T02:52:10.431Z,19.13
2022-12-08T02:54:38.616Z,23.60
2022-12-08T02:57:20.948Z,20.90
2022-12-08T03:00:03.584Z,17.70
2022-12-08T03:02:51.550Z,18.90
2022-12-08T03:05:44.107Z,18.70
2022-12-08T03:08:20.230Z,15.27
2022-12-08T03:10:53.430Z,21.20
2022-12-08T03:13:24.868Z,16.00
2022-12-08T03:15:54.724Z,16.90
2022-12-08T03:18:27.468Z,13.53
2022-12-08T03:20:54.220Z,16.63
2022-12-08T03:23:23.100Z,16.90
2022-12-08T03:26:01.730Z,18.43
2022-12-08T03:28:28.076Z,17.13
2022-12-08T03:30:57.759Z,17.07
2022-12-08T03:33:33.140Z,19.33
2022-12-08T03:36:02.428Z,19.27
2022-12-08T03:38:37.637Z,16.40
2022-12-08T03:41:04.143Z,23.73
2022-12-08T03:43:30.505Z,24.03
2022-12-08T03:45:56.826Z,18.50
2022-12-08T03:48:23.496Z,21.13
2022-12-08T03:50:50.144Z,17.23
2022-12-08T03:53:16.498Z,18.77
2022-12-08T03:55:43.204Z,17.83
2022-12-08T03:58:09.739Z,19.17
2022-12-08T04:00:36.108Z,20.47
2022-12-08T04:03:02.576Z,16.93
2022-12-08T04:05:29.123Z,17.73
2022-12-08T04:07:57.903Z,17.70
2022-12-08T04:10:24.364Z,19.20
2022-12-08T04:12:50.691Z,19.07
2022-12-08T04:15:17.126Z,20.43
2022-12-08T04:17:43.577Z,22.77
2022-12-08T04:20:10.530Z,17.27
2022-12-08T04:22:37.002Z,19.83
2022-12-08T04:25:03.623Z,18.63
2022-12-08T04:27:30.005Z,19.13
2022-12-08T04:29:56.446Z,19.83
2022-12-08T04:32:22.839Z,17.23
2022-12-08T04:34:49.446Z,17.77
2022-12-08T04:37:15.756Z,21.97
2022-12-08T04:39:42.328Z,19.43
2022-12-08T04:42:08.751Z,18.63
2022-12-08T04:44:35.397Z,28.17
2022-12-08T04:47:02.072Z,21.83
2022-12-08T04:49:28.706Z,18.50
2022-12-08T04:51:55.108Z,17.73
2022-12-08T04:54:21.593Z,20.73
2022-12-08T04:56:48.086Z,20.27
2022-12-08T04:59:14.437Z,21.50
2022-12-08T05:01:41.029Z,21.40
2022-12-08T05:04:07.846Z,19.37
2022-12-08T05:06:34.229Z,19.90
2022-12-08T05:09:00.872Z,20.27
2022-12-08T05:11:27.288Z,18.77
2022-12-08T05:13:53.681Z,24.53
2022-12-08T05:16:20.201Z,21.57
2022-12-08T05:18:46.589Z,21.57
2022-12-08T05:21:13.198Z,20.03
2022-12-08T05:23:39.577Z,18.23
2022-12-08T05:26:06.358Z,20.57
2022-12-08T05:28:42.319Z,22.93
2022-12-08T05:31:11.327Z,21.67
2022-12-08T05:33:37.854Z,18.73
2022-12-08T05:36:04.397Z,24.87
2022-12-08T05:38:31.027Z,21.60
2022-12-08T05:40:57.385Z,22.50
2022-12-08T05:43:24.103Z,20.00
2022-12-08T05:45:50.598Z,19.27
2022-12-08T05:48:17.233Z,18.93
2022-12-08T05:50:50.692Z,24.03
2022-12-08T05:53:18.725Z,20.03
2022-12-08T05:55:45.882Z,23.87
2022-12-08T05:58:15.062Z,16.70
2022-12-08T06:00:42.041Z,24.43
2022-12-08T06:03:10.814Z,19.93
2022-12-08T06:05:37.529Z,22.40
2022-12-08T06:08:07.091Z,21.93
2022-12-08T06:10:33.710Z,22.73
2022-12-08T06:13:00.651Z,20.70
2022-12-08T06:15:27.128Z,22.57
2022-12-08T06:17:53.656Z,20.27
2022-12-08T06:20:20.221Z,22.33
2022-12-08T06:22:46.654Z,21.30
2022-12-08T06:25:13.049Z,24.23
2022-12-08T06:27:39.612Z,22.53
2022-12-08T06:30:07.081Z,22.80
2022-12-08T06:32:33.710Z,22.10
2022-12-08T06:35:00.076Z,24.90
2022-12-08T06:37:26.445Z,22.87
2022-12-08T06:39:52.926Z,22.23
2022-12-08T06:42:19.671Z,23.00
2022-12-08T06:44:46.280Z,20.80
2022-12-08T06:47:12.653Z,24.67
2022-12-08T06:49:39.121Z,24.47
2022-12-08T06:52:05.645Z,25.27
2022-12-08T06:54:32.388Z,25.60
2022-12-08T06:56:58.934Z,26.23
2022-12-08T06:59:25.498Z,25.17
2022-12-08T07:01:52.508Z,29.17
2022-12-08T07:04:19.131Z,26.00
2022-12-08T07:06:45.605Z,27.13
2022-12-08T07:09:11.926Z,26.07
2022-12-08T07:11:40.277Z,27.00
2022-12-08T07:14:07.308Z,25.97
2022-12-08T07:16:35.247Z,30.93
2022-12-08T07:19:01.628Z,26.83
2022-12-08T07:21:28.088Z,33.90
2022-12-08T07:23:57.908Z,27.30
2022-12-08T07:26:25.224Z,25.98
2022-12-08T07:28:51.889Z,31.33
2022-12-08T07:31:21.124Z,27.63
2022-12-08T07:33:47.658Z,23.63
2022-12-08T07:36:15.110Z,22.83
2022-12-08T07:38:41.959Z,28.07
2022-12-08T07:41:13.120Z,25.67
2022-12-08T07:43:40.319Z,29.87
2022-12-08T07:46:06.722Z,30.50
2022-12-08T07:48:33.290Z,27.70
2022-12-08T07:51:01.308Z,26.40
2022-12-08T07:53:27.963Z,29.60
2022-12-08T07:55:54.622Z,24.97
2022-12-08T07:58:21.007Z,22.90
2022-12-08T08:00:48.687Z,21.87
2022-12-08T08:03:15.345Z,23.73
2022-12-08T08:05:41.864Z,23.47
2022-12-08T08:08:08.262Z,32.47
2022-12-08T08:10:35.136Z,34.43
2022-12-08T08:13:02.306Z,32.87
2022-12-08T08:15:28.868Z,31.80
2022-12-08T08:17:55.387Z,34.73
2022-12-08T08:20:22.125Z,26.50
2022-12-08T08:22:51.165Z,33.13
2022-12-08T08:25:18.985Z,35.63
2022-12-08T08:27:45.831Z,26.53
2022-12-08T08:30:19.621Z,27.50
2022-12-08T08:32:47.168Z,24.17
2022-12-08T08:35:13.643Z,22.23
2022-12-08T08:37:43.162Z,22.07
2022-12-08T08:40:13.823Z,29.50
2022-12-08T08:42:40.542Z,32.03
2022-12-08T08:45:07.637Z,26.87
2022-12-08T08:47:34.108Z,21.17
2022-12-08T08:50:03.384Z,18.67
2022-12-08T08:52:30.105Z,24.67
2022-12-08T08:54:56.595Z,18.90
2022-12-08T08:57:25.819Z,22.40
2022-12-08T08:59:52.783Z,19.47
2022-12-08T09:02:20.465Z,19.53
2022-12-08T09:04:47.294Z,17.50
2022-12-08T09:07:14.091Z,17.97
2022-12-08T09:09:40.974Z,19.20
2022-12-08T09:12:08.062Z,16.23
2022-12-08T09:14:34.672Z,18.93
2022-12-08T09:17:01.069Z,17.07
2022-12-08T09:19:27.642Z,19.17
2022-12-08T09:21:54.314Z,16.33
2022-12-08T09:24:20.841Z,19.53
2022-12-08T09:26:47.298Z,14.67
2022-12-08T09:29:13.872Z,15.23
2022-12-08T09:31:40.857Z,17.20
2022-12-08T09:34:07.609Z,21.33
2022-12-08T09:36:34.215Z,13.53
2022-12-08T09:39:00.594Z,16.30
2022-12-08T09:41:40.300Z,14.63
2022-12-08T09:44:34.281Z,14.30
2022-12-08T09:47:03.778Z,15.80
2022-12-08T09:50:02.505Z,18.23
2022-12-08T09:52:43.169Z,14.32
2022-12-08T09:55:17.176Z,15.13
2022-12-08T09:57:44.338Z,15.40
2022-12-08T10:00:12.594Z,14.13
2022-12-08T10:02:38.977Z,16.73
2022-12-08T10:05:09.303Z,15.43
2022-12-08T10:07:44.251Z,13.63
2022-12-08T10:10:36.632Z,17.15
2022-12-08T10:13:41.780Z,13.77
2022-12-08T10:16:33.544Z,16.10
2022-12-08T10:19:12.689Z,15.00
2022-12-08T10:21:39.980Z,19.00
2022-12-08T10:24:16.283Z,16.10
2022-12-08T10:26:46.205Z,15.80
2022-12-08T10:29:15.054Z,15.33
2022-12-08T10:31:42.178Z,13.25
2022-12-08T10:34:28.872Z,14.02
2022-12-08T10:36:58.025Z,15.98
2022-12-08T10:39:43.156Z,14.10
2022-12-08T10:42:19.456Z,13.85
2022-12-08T10:45:18.312Z,12.55
2022-12-08T10:48:02.160Z,11.60
2022-12-08T10:50:43.197Z,14.68
2022-12-08T10:55:48.119Z,14.80
2022-12-08T10:58:37.125Z,14.20
2022-12-08T11:01:19.034Z,11.45
2022-12-08T11:03:58.584Z,14.60
2022-12-08T11:06:40.985Z,11.10
2022-12-08T11:09:24.107Z,14.52
2022-12-08T11:11:58.028Z,13.63
2022-12-08T11:14:27.584Z,12.13
2022-12-08T11:17:02.331Z,11.27
2022-12-08T11:19:29.000Z,11.15
2022-12-08T11:21:55.473Z,12.60
2022-12-08T11:24:31.136Z,13.38
2022-12-08T11:27:05.605Z,14.80
2022-12-08T11:29:34.187Z,10.63
2022-12-08T11:32:11.270Z,11.13
2022-12-08T11:34:43.245Z,12.55
2022-12-08T11:37:40.280Z,10.25
2022-12-08T11:40:14.622Z,11.35
2022-12-08T11:42:53.432Z,8.57
2022-12-08T11:45:26.934Z,10.27
2022-12-08T11:48:13.677Z,10.35
2022-12-08T11:50:51.485Z,9.10
2022-12-08T11:53:30.294Z,16.50
2022-12-08T11:56:04.583Z,10.18
2022-12-08T11:59:10.378Z,13.05
2022-12-08T12:01:42.543Z,6.75
2022-12-08T12:04:23.834Z,9.32
2022-12-08T12:09:39.444Z,13.70
2022-12-08T12:12:17.777Z,9.95
2022-12-08T12:15:30.169Z,9.55
2022-12-08T12:18:03.329Z,8.18
2022-12-08T12:20:44.625Z,12.55
2022-12-08T12:23:36.397Z,8.23
2022-12-08T12:26:07.076Z,16.95
2022-12-08T12:28:47.838Z,10.60
2022-12-08T12:31:18.206Z,11.02
2022-12-08T12:33:47.051Z,8.68
2022-12-08T12:36:14.959Z,11.73
2022-12-08T12:38:54.030Z,9.63
2022-12-08T12:41:38.390Z,6.43
2022-12-08T12:44:13.754Z,6.80
2022-12-08T12:47:01.347Z,7.93
2022-12-08T12:49:40.162Z,8.68
2022-12-08T12:52:15.365Z,6.32
2022-12-08T12:55:05.392Z,7.85
2022-12-08T12:57:39.802Z,10.15
2022-12-08T13:00:06.475Z,7.28
2022-12-08T13:02:37.609Z,7.88
2022-12-08T13:07:52.857Z,8.60
2022-12-08T13:10:23.883Z,9.80
2022-12-08T13:15:41.362Z,8.13
2022-12-08T13:18:26.751Z,5.65
2022-12-08T13:21:02.521Z,7.38
2022-12-08T13:23:37.888Z,6.07
2022-12-08T13:26:16.211Z,5.03
2022-12-08T13:29:00.653Z,6.10
2022-12-08T13:31:51.461Z,6.07
2022-12-08T13:37:02.255Z,6.78
2022-12-08T13:39:37.324Z,5.90
2022-12-08T13:42:12.938Z,6.22
2022-12-08T13:47:41.465Z,6.72
2022-12-08T13:59:24.652Z,4.43
2022-12-08T14:01:51.835Z,8.60
2022-12-08T14:04:42.648Z,6.78
2022-12-08T14:07:11.146Z,21.17
2022-12-08T14:09:37.761Z,15.48
2022-12-08T14:12:08.463Z,10.32
2022-12-08T14:17:32.050Z,7.03
2022-12-08T14:20:02.021Z,7.32
2022-12-08T14:22:37.387Z,8.53
2022-12-08T14:25:06.325Z,6.90
2022-12-08T14:27:35.989Z,6.22
2022-12-08T14:30:07.247Z,9.15
2022-12-08T14:32:44.511Z,5.55
2022-12-08T14:35:10.913Z,5.38
2022-12-08T14:38:12.317Z,7.72
2022-12-08T14:40:44.867Z,5.88
2022-12-08T14:43:11.267Z,7.55
2022-12-08T14:45:41.826Z,5.07
2022-12-08T14:48:27.079Z,7.18
2022-12-08T14:50:58.942Z,6.35
2022-12-08T14:53:25.838Z,5.50
2022-12-08T14:55:52.475Z,9.77
2022-12-08T14:58:30.202Z,5.35
2022-12-08T15:00:58.627Z,8.07
2022-12-08T15:03:32.595Z,4.43
2022-12-08T15:06:04.945Z,4.93
2022-12-08T15:08:32.720Z,7.43
2022-12-08T15:11:21.038Z,8.32
2022-12-08T15:13:52.391Z,5.38
2022-12-08T15:16:31.592Z,5.35
2022-12-08T15:19:16.608Z,7.00
2022-12-08T15:21:44.968Z,8.50
2022-12-08T15:24:13.551Z,5.53
2022-12-08T15:26:44.706Z,6.83
2022-12-08T15:29:19.028Z,6.25
2022-12-08T15:31:45.478Z,11.27
2022-12-08T15:34:11.867Z,8.55
2022-12-08T15:36:39.283Z,5.97
2022-12-08T15:39:10.857Z,8.10
2022-12-08T15:41:38.833Z,8.77
2022-12-08T15:44:05.280Z,8.07
2022-12-08T15:46:32.066Z,10.68
2022-12-08T15:48:58.485Z,7.70
2022-12-08T15:51:25.917Z,10.40
2022-12-08T15:53:52.639Z,7.33
2022-12-08T15:56:27.477Z,7.25
2022-12-08T15:58:56.417Z,7.15
2022-12-08T16:01:24.561Z,8.00
2022-12-08T16:09:30.927Z,8.02
2022-12-08T16:12:08.347Z,7.30
2022-12-08T16:17:22.666Z,8.07
2022-12-08T16:19:49.073Z,7.47
2022-12-08T16:25:18.146Z,8.47
2022-12-08T16:30:36.559Z,11.82
2022-12-08T16:33:03.083Z,12.00
2022-12-08T16:35:30.521Z,10.33
2022-12-08T16:37:57.667Z,11.37
2022-12-08T16:40:24.460Z,13.57
2022-12-08T16:42:50.956Z,11.07
2022-12-08T16:45:30.012Z,12.10
2022-12-08T16:48:00.983Z,13.97
2022-12-08T16:53:01.611Z,9.10
2022-12-08T16:55:28.708Z,10.27
2022-12-08T16:57:55.130Z,11.90
2022-12-08T17:00:24.669Z,13.50
2022-12-08T17:02:51.760Z,11.80
2022-12-08T17:05:20.461Z,10.10
2022-12-08T17:07:49.504Z,10.10
2022-12-08T17:10:18.638Z,8.77
2022-12-08T17:12:45.480Z,9.55
2022-12-08T17:15:15.698Z,11.57
2022-12-08T17:17:42.246Z,9.95
2022-12-08T17:20:16.003Z,10.18
2022-12-08T17:22:42.855Z,12.67
2022-12-08T17:25:09.561Z,13.60
2022-12-08T17:27:36.589Z,13.97
2022-12-08T17:30:04.704Z,12.80
2022-12-08T17:32:31.383Z,15.37
2022-12-08T17:34:57.759Z,13.67
2022-12-08T17:37:24.234Z,12.40
2022-12-08T17:39:53.045Z,15.93
2022-12-08T17:42:19.457Z,11.63
2022-12-08T17:44:45.955Z,13.13
2022-12-08T17:47:12.364Z,14.43
2022-12-08T17:49:40.047Z,14.20
2022-12-08T17:52:06.636Z,14.03
2022-12-08T17:54:33.069Z,16.03
2022-12-08T17:57:00.015Z,18.43
2022-12-08T17:59:28.419Z,17.00
2022-12-08T18:01:56.462Z,15.37
2022-12-08T18:04:25.473Z,20.17
2022-12-08T18:06:51.939Z,20.33
2022-12-08T18:09:18.955Z,17.70
2022-12-08T18:11:47.473Z,18.33
2022-12-08T18:14:14.554Z,13.63
2022-12-08T18:16:43.936Z,17.60
2022-12-08T18:19:11.452Z,15.73
2022-12-08T18:21:37.954Z,17.40
2022-12-08T18:24:05.198Z,12.23
2022-12-08T18:26:32.137Z,13.13
2022-12-08T18:28:58.584Z,15.77
2022-12-08T18:31:25.414Z,16.70
2022-12-08T18:33:52.857Z,17.92
2022-12-08T18:36:24.468Z,17.33
2022-12-08T18:38:51.922Z,13.30
2022-12-08T18:41:21.922Z,15.40
2022-12-08T18:43:48.611Z,14.48
2022-12-08T18:46:15.485Z,13.90
2022-12-08T18:48:50.110Z,18.90
2022-12-08T18:51:19.006Z,16.60
2022-12-08T18:53:46.302Z,15.60
2022-12-08T18:56:24.525Z,20.47
2022-12-08T18:58:50.952Z,15.47
2022-12-08T19:01:18.287Z,16.60
2022-12-08T19:04:04.663Z,20.03
2022-12-08T19:06:31.954Z,19.83
2022-12-08T19:08:58.453Z,17.93
2022-12-08T19:11:27.173Z,18.00
2022-12-08T19:13:55.208Z,19.53
2022-12-08T19:19:05.353Z,18.03
2022-12-08T19:21:32.374Z,14.70
2022-12-08T19:23:59.047Z,13.27
2022-12-08T19:26:28.224Z,14.33
2022-12-08T19:28:54.867Z,17.70
2022-12-08T19:31:21.391Z,15.03
2022-12-08T19:33:47.846Z,15.63
2022-12-08T19:36:17.861Z,15.97
2022-12-08T19:38:44.231Z,15.45
2022-12-08T19:41:17.617Z,15.17
2022-12-08T19:43:43.989Z,14.83
2022-12-08T19:46:10.725Z,13.83
2022-12-08T19:48:37.401Z,15.60
2022-12-08T19:51:04.923Z,14.47
2022-12-08T19:53:31.415Z,14.30
2022-12-08T19:55:57.752Z,13.17
2022-12-08T19:58:24.118Z,15.97
2022-12-08T20:00:52.656Z,12.93
2022-12-08T20:03:21.161Z,14.50
2022-12-08T20:05:49.557Z,18.07
2022-12-08T20:08:16.393Z,14.37
2022-12-08T20:10:43.571Z,16.87
2022-12-08T20:13:11.604Z,18.03
2022-12-08T20:15:37.959Z,18.27
2022-12-08T20:18:04.924Z,17.80
2022-12-08T20:20:31.333Z,20.27
2022-12-08T20:22:57.643Z,16.90
2022-12-08T20:25:24.171Z,20.43
2022-12-08T20:27:50.911Z,18.97
2022-12-08T20:30:17.632Z,18.50
2022-12-08T20:32:44.693Z,17.03
2022-12-08T20:35:11.415Z,18.83
2022-12-08T20:37:38.086Z,16.10
2022-12-08T20:40:06.563Z,14.50
2022-12-08T20:42:32.997Z,19.33
2022-12-08T20:44:59.304Z,18.13
2022-12-08T20:47:25.743Z,16.60
2022-12-08T20:49:52.396Z,15.30
2022-12-08T20:52:18.795Z,17.77
2022-12-08T20:54:45.313Z,17.83
2022-12-08T20:57:11.669Z,15.47
2022-12-08T20:59:38.361Z,15.87
2022-12-08T21:02:04.958Z,19.40
2022-12-08T21:04:31.642Z,17.67
2022-12-08T21:06:58.160Z,16.90
2022-12-08T21:09:24.759Z,14.80
2022-12-08T21:11:51.322Z,16.77
2022-12-08T21:14:17.992Z,18.07
2022-12-08T21:16:44.582Z,15.53
2022-12-08T21:19:11.934Z,16.63
2022-12-08T21:21:38.774Z,15.10
2022-12-08T21:24:05.805Z,15.60
2022-12-08T21:26:32.189Z,12.33
2022-12-08T21:28:58.888Z,14.83
2022-12-08T21:31:25.701Z,16.23
2022-12-08T21:33:52.926Z,14.43
2022-12-08T21:36:21.350Z,14.37
2022-12-08T21:38:48.689Z,17.63
2022-12-08T21:41:22.698Z,13.93
2022-12-08T21:43:49.412Z,14.43
2022-12-08T21:46:17.194Z,17.27
2022-12-08T21:48:44.030Z,15.93
2022-12-08T21:51:11.027Z,18.07
2022-12-08T21:53:37.711Z,16.80
2022-12-08T21:56:08.804Z,13.50
2022-12-08T21:58:35.380Z,17.93
2022-12-08T22:01:07.375Z,14.83
2022-12-08T22:03:34.207Z,15.83
2022-12-08T22:06:09.448Z,14.20
2022-12-08T22:08:36.473Z,21.17
2022-12-08T22:11:03.508Z,17.20
2022-12-08T22:13:30.327Z,17.73
2022-12-08T22:16:01.690Z,16.80
2022-12-08T22:18:28.722Z,16.77
2022-12-08T22:20:55.582Z,18.93
2022-12-08T22:23:22.827Z,21.10
2022-12-08T22:25:57.601Z,18.10
2022-12-08T22:28:25.331Z,17.60
2022-12-08T22:30:52.139Z,22.00
2022-12-08T22:33:18.836Z,19.87
2022-12-08T22:35:55.410Z,18.90
2022-12-08T22:38:22.332Z,20.03
2022-12-08T22:40:49.219Z,17.83
2022-12-08T22:43:15.900Z,21.43
2022-12-08T22:45:42.716Z,19.57
2022-12-08T22:48:09.466Z,17.37
2022-12-08T22:50:36.447Z,18.30
2022-12-08T22:53:04.267Z,19.33
2022-12-08T22:55:31.277Z,15.97
2022-12-08T22:57:57.778Z,19.40
2022-12-08T23:00:24.572Z,19.30
2022-12-08T23:02:51.264Z,16.00
2022-12-08T23:05:17.981Z,18.23
2022-12-08T23:07:44.666Z,15.00
2022-12-08T23:10:11.889Z,14.30
2022-12-08T23:12:38.583Z,16.53
2022-12-08T23:15:05.719Z,12.90
2022-12-08T23:17:32.502Z,15.90
2022-12-08T23:19:59.230Z,15.97
2022-12-08T23:22:25.880Z,15.07
2022-12-08T23:24:52.685Z,14.20
2022-12-08T23:27:19.282Z,12.57
2022-12-08T23:29:45.976Z,14.20
2022-12-08T23:32:12.594Z,14.87
2022-12-08T23:34:39.692Z,14.40
2022-12-08T23:37:06.296Z,14.80
2022-12-08T23:39:32.741Z,17.90
2022-12-08T23:41:59.065Z,16.97
2022-12-08T23:44:25.453Z,13.33
2022-12-08T23:46:52.117Z,13.53
2022-12-08T23:49:18.854Z,12.83
2022-12-08T23:51:45.415Z,15.17
2022-12-08T23:54:11.836Z,13.87
2022-12-08T23:56:38.183Z,14.53
2022-12-08T23:59:04.768Z,13.20
